Aérodrome :
LOGIN :

S'inscrire | Disclaimer

   EN    FR    IT 

 










Légende :    VFR   VFR Marginal   IFR   IFR Intensif   IFR Très Intensif
Visi : 
Plafond : 
>= 8 km
>= 3000ft
5 à 8 km
1000 à 3000 ft
1500m à 5 km
500 à 1000 ft
800 à 1500m
200 à 500 ft
< 800m
< 200 ft
Symboles :   Orages  Brouillard  Fortes neiges  Fortes précipitations  Vent > 20 kt
SIGMETs :   Divers  Orages  Givrage  Turbulence  Onde Orograph.  Cendres Volcan.







- Altitude de l'aérodrome : 289 ft
- Voir les cartes d'approche


LFYR - Romorantin Pruniers

DERNIER METAR :
  • 231000Z AUTO 26004KT 220V310 9999 BKN006 BKN014 OVC020 07/06 Q1008 TEMPO 4000 RADZ BKN003 BKN015 FEW015TCU

METARs EXPIRÉS :
  • 230930Z AUTO VRB02KT 9999 -RA OVC012/// ///TCU 07/05 Q1009 TEMPO 4000 RADZ BKN003 BKN015 FEW015TCU
  • 230900Z AUTO 21005KT 9999 BKN010 OVC014 07/05 Q1009 TEMPO 4000 RADZ BKN003 BKN015 FEW015TCU
  • 230830Z AUTO VRB02KT 9999 BKN009 BKN013 OVC100 07/05 Q1008 TEMPO 4000 RADZ BKN003 BKN015 FEW015TCU
  • 230800Z AUTO 30003KT 250V350 9999 FEW005 BKN009 BKN035 07/06 Q1007 TEMPO 4000 RADZ BKN003 BKN015 FEW015TCU
  • 230730Z AUTO 23003KT 210V280 9999 FEW004 SCT010 BKN034 06/06 Q1008 TEMPO 4000 RADZ BKN003 BKN015 FEW015TCU

Prévision TAF périmée.
Pas de NOTAMs connus pour ce terrain.



MET'MAP, la Météo Aéronautique d'un coup d'oeil ! - Copyright ORBIFLY Décembre 2007 - Disclaimer

ORBIFLY MET'MAP TEAM :

Programmation & Développement : Alexandra Zaïnal
Conception & Développement : Baudouin d'Aumeries
Co-Programmation & Développement : Marc-Olivier Méhu
Soutien technique & logistique : Manuel Goepfert

Contact : metmap@orbifly.com




SOURCES & CREDITS :

   NOAA